Time;durP1;ratioP1;P1;durP2;ratioP2;P2;SDS_P1;SDS_P2;PMS_P1;PMS_P2;Temp;Humidity;BMP_temperature;BMP_pressure;BME280_temperature;BME280_humidity;BME280_pressure;Samples;Min_cycle;Max_cycle;Signal;HPM_P1;HPM_P2
2021/12/17 00:04:39;;;;;;;23.70;11.57;;;;;;;;;;5045561;28;20465;-62
2021/12/17 00:07:11;;;;;;;21.75;12.52;;;;;;;;;;5044844;28;20550;-59
2021/12/17 00:09:38;;;;;;;23.17;11.98;;;;;;;;;;5042774;28;20031;-62
2021/12/17 00:12:09;;;;;;;22.30;12.07;;;;;;;;;;5046282;28;20151;-62
2021/12/17 00:14:37;;;;;;;23.98;13.00;;;;;;;;;;5043679;28;20025;-58
2021/12/17 00:17:07;;;;;;;24.48;13.98;;;;;;;;;;5042222;28;20033;-61
2021/12/17 00:49:22;;;;;;;26.73;14.63;;;;;;;;;;5045330;28;20079;-61
2021/12/17 00:51:56;;;;;;;30.13;14.00;;;;;;;;;;5045793;28;20024;-61
2021/12/17 00:54:34;;;;;;;28.65;13.77;;;;;;;;;;5042905;28;20051;-61
2021/12/17 00:57:13;;;;;;;27.17;14.15;;;;;;;;;;5045458;28;20432;-60
2021/12/17 00:59:42;;;;;;;26.73;13.73;;;;;;;;;;5043520;28;20116;-60
2021/12/17 01:02:12;;;;;;;27.88;14.05;;;;;;;;;;5042912;28;20099;-61
2021/12/17 01:04:43;;;;;;;26.75;14.05;;;;;;;;;;5043806;28;20037;-61
2021/12/17 01:07:12;;;;;;;22.13;14.02;;;;;;;;;;5043382;28;20032;-62
2021/12/17 01:09:38;;;;;;;24.58;14.93;;;;;;;;;;5027187;28;20033;-61
2021/12/17 01:12:05;;;;;;;25.92;13.90;;;;;;;;;;5043394;28;20114;-62
2021/12/17 01:14:32;;;;;;;28.30;14.20;;;;;;;;;;5043984;28;20098;-60
2021/12/17 01:16:58;;;;;;;22.58;13.23;;;;;;;;;;5044987;28;20067;-61
2021/12/17 01:24:59;;;;;;;13.88;8.50;;;;;;;;;;5043872;28;20051;-62
2021/12/17 01:35:41;;;;;;;9.80;5.45;;;;;;;;;;5041702;28;20066;-62
2021/12/17 01:43:23;;;;;;;3.97;3.33;;;;;;;;;;5042410;28;20434;-62
2021/12/17 01:45:49;;;;;;;6.35;3.15;;;;;;;;;;5043292;28;20090;-62
2021/12/17 01:48:20;;;;;;;4.32;3.00;;;;;;;;;;5044634;28;20032;-62
2021/12/17 01:56:36;;;;;;;4.20;2.90;;;;;;;;;;5048789;28;20121;-60
2021/12/17 01:59:22;;;;;;;4.47;3.28;;;;;;;;;;5047818;28;20480;-62
2021/12/17 02:01:53;;;;;;;4.55;3.22;;;;;;;;;;5046716;28;20037;-59
2021/12/17 02:04:19;;;;;;;5.20;3.42;;;;;;;;;;5042731;28;20515;-59
2021/12/17 02:06:45;;;;;;;4.97;3.70;;;;;;;;;;5047676;28;20036;-57
2021/12/17 02:31:41;;;;;;;8.05;3.60;;;;;;;;;;5047188;28;20045;-59
2021/12/17 02:34:36;;;;;;;4.55;3.63;;;;;;;;;;5044735;28;20025;-58
2021/12/17 02:36:57;;;;;;;6.72;3.65;;;;;;;;;;5046597;28;20037;-57
2021/12/17 02:47:26;;;;;;;6.30;3.95;;;;;;;;;;5048374;28;20555;-59
2021/12/17 02:49:51;;;;;;;6.22;4.13;;;;;;;;;;5048701;28;20115;-58
2021/12/17 02:52:19;;;;;;;5.47;3.78;;;;;;;;;;5049949;28;20048;-58
2021/12/17 02:54:45;;;;;;;7.85;4.03;;;;;;;;;;5047986;28;20389;-59
2021/12/17 02:57:12;;;;;;;5.75;3.92;;;;;;;;;;5045521;28;20025;-59
2021/12/17 02:59:38;;;;;;;5.20;3.80;;;;;;;;;;5046851;28;20079;-60
2021/12/17 03:02:07;;;;;;;5.20;3.75;;;;;;;;;;5048199;28;20021;-57
2021/12/17 03:04:35;;;;;;;5.05;3.70;;;;;;;;;;5047591;28;20057;-60
2021/12/17 03:07:01;;;;;;;10.20;3.60;;;;;;;;;;5045696;28;20020;-60
2021/12/17 03:09:50;;;;;;;6.20;3.75;;;;;;;;;;5046222;28;20494;-58
2021/12/17 03:12:21;;;;;;;5.35;3.72;;;;;;;;;;5050614;28;20068;-59
2021/12/17 03:14:55;;;;;;;4.80;3.50;;;;;;;;;;5046702;28;20108;-57
2021/12/17 03:17:43;;;;;;;8.05;4.10;;;;;;;;;;5047710;28;20037;-57
2021/12/17 03:25:34;;;;;;;4.47;3.60;;;;;;;;;;5045719;28;20086;-59
2021/12/17 03:28:00;;;;;;;5.78;3.95;;;;;;;;;;5043813;28;20037;-60
2021/12/17 03:30:25;;;;;;;5.80;3.85;;;;;;;;;;5043898;28;20029;-59
2021/12/17 03:32:51;;;;;;;4.53;3.35;;;;;;;;;;5043136;28;20021;-56
2021/12/17 03:35:16;;;;;;;4.25;3.25;;;;;;;;;;5045322;28;20057;-60
2021/12/17 03:37:42;;;;;;;4.53;2.70;;;;;;;;;;5046341;28;20040;-58
2021/12/17 03:40:07;;;;;;;3.72;2.70;;;;;;;;;;5044626;28;20032;-57
2021/12/17 03:42:33;;;;;;;3.50;2.72;;;;;;;;;;5045969;28;20032;-57
2021/12/17 03:44:58;;;;;;;4.10;3.10;;;;;;;;;;5046012;28;20043;-60
2021/12/17 03:47:24;;;;;;;3.90;2.72;;;;;;;;;;5045398;28;20167;-59
2021/12/17 03:49:52;;;;;;;4.78;3.30;;;;;;;;;;5044725;28;20032;-59
2021/12/17 03:52:17;;;;;;;4.68;3.17;;;;;;;;;;5026796;28;20037;-60
2021/12/17 03:54:42;;;;;;;5.82;3.45;;;;;;;;;;5048376;28;20033;-61
2021/12/17 03:57:12;;;;;;;3.83;3.10;;;;;;;;;;5045232;28;20478;-60
2021/12/17 03:59:37;;;;;;;4.53;3.40;;;;;;;;;;5047294;28;20108;-57
2021/12/17 04:02:03;;;;;;;5.68;3.75;;;;;;;;;;5044931;28;20540;-59
2021/12/17 04:04:28;;;;;;;5.68;3.63;;;;;;;;;;5043294;28;20029;-60
2021/12/17 04:06:53;;;;;;;5.40;3.70;;;;;;;;;;5044898;28;20024;-60
2021/12/17 04:09:21;;;;;;;4.35;3.33;;;;;;;;;;5045431;28;20033;-60
2021/12/17 04:11:47;;;;;;;5.28;3.60;;;;;;;;;;5044300;28;20128;-57
2021/12/17 04:14:13;;;;;;;4.88;3.63;;;;;;;;;;5047274;28;20065;-60
2021/12/17 04:16:39;;;;;;;8.45;4.05;;;;;;;;;;5043831;28;20062;-60
2021/12/17 04:19:04;;;;;;;5.28;3.63;;;;;;;;;;5045706;28;20534;-59
2021/12/17 04:21:30;;;;;;;7.20;3.90;;;;;;;;;;5042996;28;20451;-60
2021/12/17 04:23:56;;;;;;;7.43;3.72;;;;;;;;;;5028650;28;20540;-57
2021/12/17 04:26:23;;;;;;;7.78;3.70;;;;;;;;;;5045779;28;20103;-59
2021/12/17 04:28:51;;;;;;;5.35;3.53;;;;;;;;;;5047528;28;20039;-60
2021/12/17 04:31:19;;;;;;;5.15;3.72;;;;;;;;;;5044958;28;20990;-58
2021/12/17 04:33:44;;;;;;;5.40;3.85;;;;;;;;;;5046807;28;20031;-60
2021/12/17 04:36:14;;;;;;;6.05;4.10;;;;;;;;;;5045804;28;20033;-59
2021/12/17 04:38:40;;;;;;;7.32;3.88;;;;;;;;;;5048077;28;20116;-58
2021/12/17 04:41:52;;;;;;;5.60;3.80;;;;;;;;;;5043714;28;20517;-60
2021/12/17 04:59:48;;;;;;;4.70;3.28;;;;;;;;;;5042766;28;20114;-60
2021/12/17 05:02:15;;;;;;;8.23;3.17;;;;;;;;;;5042977;28;20155;-60
2021/12/17 05:04:42;;;;;;;3.85;2.83;;;;;;;;;;5045071;28;20461;-60
2021/12/17 05:07:10;;;;;;;6.60;3.50;;;;;;;;;;5044467;28;20029;-58
2021/12/17 05:09:45;;;;;;;4.30;3.50;;;;;;;;;;5043045;28;20048;-59
2021/12/17 05:20:26;;;;;;;4.90;3.45;;;;;;;;;;5045852;28;20119;-50
2021/12/17 05:22:57;;;;;;;4.10;3.13;;;;;;;;;;5043833;28;20480;-48
2021/12/17 05:25:26;;;;;;;5.45;3.65;;;;;;;;;;5047189;28;20064;-47
2021/12/17 05:27:51;;;;;;;4.88;2.85;;;;;;;;;;5047901;28;20030;-47
2021/12/17 05:30:16;;;;;;;4.53;3.63;;;;;;;;;;5049937;28;20032;-50
2021/12/17 05:32:42;;;;;;;4.03;3.28;;;;;;;;;;5049743;28;20036;-47
2021/12/17 05:35:07;;;;;;;4.35;3.67;;;;;;;;;;5049772;28;20029;-54
2021/12/17 05:37:33;;;;;;;4.15;3.00;;;;;;;;;;5046283;28;20029;-48
2021/12/17 05:39:59;;;;;;;5.60;3.55;;;;;;;;;;5052398;28;20043;-46
2021/12/17 05:42:24;;;;;;;6.28;3.83;;;;;;;;;;5047158;28;20457;-50
2021/12/17 05:44:55;;;;;;;5.25;3.55;;;;;;;;;;5048536;28;20032;-49
2021/12/17 05:47:20;;;;;;;6.15;4.10;;;;;;;;;;5047412;28;20074;-49
2021/12/17 05:49:46;;;;;;;6.25;3.25;;;;;;;;;;5047214;28;20041;-53
2021/12/17 05:52:11;;;;;;;5.93;3.70;;;;;;;;;;5050372;28;20435;-51
2021/12/17 05:54:37;;;;;;;5.75;3.70;;;;;;;;;;5026934;28;20060;-50
2021/12/17 05:57:03;;;;;;;5.50;3.85;;;;;;;;;;5047055;28;20051;-50
2021/12/17 05:59:34;;;;;;;5.53;3.72;;;;;;;;;;5047146;28;20029;-50
2021/12/17 06:02:01;;;;;;;5.47;4.05;;;;;;;;;;5048403;28;20083;-49
2021/12/17 06:04:26;;;;;;;4.95;3.85;;;;;;;;;;5046168;28;20051;-49
2021/12/17 06:06:52;;;;;;;6.00;4.10;;;;;;;;;;5050725;28;20029;-47
2021/12/17 06:09:17;;;;;;;4.68;3.85;;;;;;;;;;5044664;28;20666;-51
2021/12/17 06:11:42;;;;;;;6.30;4.18;;;;;;;;;;5047532;28;20519;-46
2021/12/17 06:14:08;;;;;;;5.20;4.30;;;;;;;;;;5047919;28;20036;-48
2021/12/17 06:16:34;;;;;;;12.68;4.13;;;;;;;;;;5047099;28;20056;-51
2021/12/17 06:19:03;;;;;;;10.50;4.57;;;;;;;;;;5048706;28;20048;-50
2021/12/17 06:21:28;;;;;;;6.30;4.03;;;;;;;;;;5047341;28;20024;-48
2021/12/17 06:23:53;;;;;;;8.45;4.20;;;;;;;;;;5046529;28;20024;-52
2021/12/17 06:26:19;;;;;;;6.53;4.18;;;;;;;;;;5048853;28;20052;-50
2021/12/17 06:28:49;;;;;;;6.70;4.53;;;;;;;;;;5045828;28;20029;-46
2021/12/17 06:31:15;;;;;;;9.52;4.55;;;;;;;;;;5048733;28;20503;-49
2021/12/17 06:33:40;;;;;;;7.57;4.30;;;;;;;;;;5050519;28;20028;-50
2021/12/17 06:36:05;;;;;;;6.80;4.32;;;;;;;;;;5049356;28;20039;-48
2021/12/17 06:38:31;;;;;;;7.82;4.85;;;;;;;;;;5046372;28;20040;-52
2021/12/17 06:40:58;;;;;;;7.30;4.30;;;;;;;;;;5046320;28;20104;-52
2021/12/17 06:43:29;;;;;;;9.63;4.63;;;;;;;;;;5047319;28;20109;-49
2021/12/17 06:46:04;;;;;;;8.13;4.75;;;;;;;;;;5051879;28;20427;-50
2021/12/17 06:48:31;;;;;;;7.05;4.88;;;;;;;;;;5047309;28;20033;-53
2021/12/17 06:59:03;;;;;;;6.38;3.65;;;;;;;;;;5045631;28;20029;-53
2021/12/17 07:07:19;;;;;;;6.60;4.18;;;;;;;;;;5048495;28;20696;-51
2021/12/17 07:17:43;;;;;;;6.15;3.42;;;;;;;;;;5047353;28;20043;-49
2021/12/17 07:28:11;;;;;;;6.72;4.05;;;;;;;;;;4993416;28;20049;-52
2021/12/17 07:33:33;;;;;;;6.05;4.20;;;;;;;;;;5049005;28;20039;-49
2021/12/17 07:36:07;;;;;;;5.47;3.63;;;;;;;;;;5045274;28;20045;-48
2021/12/17 07:38:38;;;;;;;7.25;4.20;;;;;;;;;;5048261;28;20024;-51
2021/12/17 07:41:04;;;;;;;8.40;4.00;;;;;;;;;;5047327;28;20029;-50
2021/12/17 07:43:50;;;;;;;6.90;4.53;;;;;;;;;;5044199;28;20060;-48
2021/12/17 07:46:15;;;;;;;6.35;4.20;;;;;;;;;;5044628;28;20098;-49
2021/12/17 07:48:41;;;;;;;8.23;3.92;;;;;;;;;;5044784;28;20041;-47
2021/12/17 07:51:10;;;;;;;5.65;3.90;;;;;;;;;;5044435;28;21364;-50
2021/12/17 07:53:36;;;;;;;5.50;3.95;;;;;;;;;;5047003;28;20017;-48
2021/12/17 07:56:04;;;;;;;6.72;4.50;;;;;;;;;;5045821;28;21128;-49
2021/12/17 07:58:30;;;;;;;6.82;4.80;;;;;;;;;;5046202;28;20032;-49
2021/12/17 08:00:55;;;;;;;5.65;4.35;;;;;;;;;;5047700;28;20044;-53
2021/12/17 08:03:21;;;;;;;6.10;4.40;;;;;;;;;;5029553;28;20417;-50
2021/12/17 08:05:47;;;;;;;5.70;4.43;;;;;;;;;;5045423;28;20459;-52
2021/12/17 08:08:13;;;;;;;5.65;3.97;;;;;;;;;;5046077;28;20082;-50
2021/12/17 08:10:38;;;;;;;7.50;3.88;;;;;;;;;;5044711;28;20502;-50
2021/12/17 08:13:07;;;;;;;5.78;4.35;;;;;;;;;;5045356;28;20075;-48
2021/12/17 08:15:38;;;;;;;6.45;4.15;;;;;;;;;;5045816;28;20024;-51
2021/12/17 08:18:22;;;;;;;7.57;4.60;;;;;;;;;;5045197;28;20117;-47
2021/12/17 08:31:28;;;;;;;6.95;4.65;;;;;;;;;;5046247;28;20024;-50
2021/12/17 08:33:54;;;;;;;8.40;4.38;;;;;;;;;;5046307;28;20040;-48
2021/12/17 08:36:19;;;;;;;9.10;5.00;;;;;;;;;;5045737;28;20047;-50
2021/12/17 08:38:49;;;;;;;11.82;5.38;;;;;;;;;;5042654;28;20425;-48
2021/12/17 08:41:16;;;;;;;9.52;4.85;;;;;;;;;;5048219;28;21314;-50
2021/12/17 08:43:41;;;;;;;15.93;5.50;;;;;;;;;;5044208;28;20029;-48
2021/12/17 08:46:07;;;;;;;10.50;4.88;;;;;;;;;;5044388;28;20776;-53
2021/12/17 08:48:32;;;;;;;8.07;4.65;;;;;;;;;;5046706;28;20029;-47
2021/12/17 08:50:58;;;;;;;7.95;4.45;;;;;;;;;;5043487;28;20020;-49
2021/12/17 08:53:24;;;;;;;10.48;4.82;;;;;;;;;;5045201;28;20036;-54
2021/12/17 08:55:49;;;;;;;17.70;4.90;;;;;;;;;;5045739;28;20154;-50
2021/12/17 08:58:15;;;;;;;9.20;4.15;;;;;;;;;;5044357;28;20063;-51
2021/12/17 09:00:41;;;;;;;11.63;4.00;;;;;;;;;;5051025;28;20037;-51
2021/12/17 09:03:09;;;;;;;11.88;4.72;;;;;;;;;;5030641;28;20036;-49
2021/12/17 09:05:37;;;;;;;9.23;5.07;;;;;;;;;;5047467;28;20033;-48
2021/12/17 09:08:04;;;;;;;8.50;4.60;;;;;;;;;;5047658;28;20037;-48
2021/12/17 09:10:29;;;;;;;12.82;5.18;;;;;;;;;;5047636;28;20029;-47
2021/12/17 09:12:55;;;;;;;7.45;4.72;;;;;;;;;;5048719;28;20021;-53
2021/12/17 09:15:21;;;;;;;8.70;5.32;;;;;;;;;;5048252;28;20065;-47
2021/12/17 09:17:46;;;;;;;13.65;5.78;;;;;;;;;;5047198;28;20027;-49
2021/12/17 09:20:11;;;;;;;10.02;4.65;;;;;;;;;;5046765;28;20115;-52
2021/12/17 09:22:37;;;;;;;9.02;4.70;;;;;;;;;;5048157;28;20029;-50
2021/12/17 09:25:03;;;;;;;10.70;5.00;;;;;;;;;;5047696;28;20021;-53
2021/12/17 09:27:29;;;;;;;6.05;4.43;;;;;;;;;;5050506;28;20143;-51
2021/12/17 09:29:54;;;;;;;7.63;5.05;;;;;;;;;;5049266;28;20120;-50
2021/12/17 09:32:21;;;;;;;6.70;5.00;;;;;;;;;;5045620;28;20032;-52
2021/12/17 09:34:46;;;;;;;8.27;4.97;;;;;;;;;;5049670;28;20032;-49
2021/12/17 09:37:13;;;;;;;9.32;4.30;;;;;;;;;;5047032;28;20029;-50
2021/12/17 09:39:39;;;;;;;6.68;4.80;;;;;;;;;;5049367;28;20112;-48
2021/12/17 09:42:04;;;;;;;7.57;4.50;;;;;;;;;;5047990;28;20432;-48
2021/12/17 09:44:29;;;;;;;7.93;4.80;;;;;;;;;;5045810;28;20108;-50
2021/12/17 09:46:57;;;;;;;4.78;3.63;;;;;;;;;;5047578;28;20102;-51
2021/12/17 09:49:23;;;;;;;5.18;4.13;;;;;;;;;;5048748;28;20067;-52
2021/12/17 09:51:49;;;;;;;8.82;4.75;;;;;;;;;;5046109;28;20049;-47
2021/12/17 09:54:15;;;;;;;6.45;4.25;;;;;;;;;;5032009;28;21096;-48
2021/12/17 09:56:41;;;;;;;7.93;4.00;;;;;;;;;;5048298;28;20155;-48
2021/12/17 09:59:06;;;;;;;5.32;3.70;;;;;;;;;;5049032;28;20753;-46
2021/12/17 10:01:37;;;;;;;6.50;3.85;;;;;;;;;;5049751;28;20045;-46
2021/12/17 10:04:31;;;;;;;9.65;4.10;;;;;;;;;;5049132;28;20495;-52
2021/12/17 10:07:20;;;;;;;6.75;4.30;;;;;;;;;;5050224;28;20027;-49
2021/12/17 10:10:00;;;;;;;6.05;4.18;;;;;;;;;;5048211;28;20039;-50
2021/12/17 10:12:31;;;;;;;4.93;3.40;;;;;;;;;;5046253;28;20365;-50
2021/12/17 10:15:11;;;;;;;7.18;3.83;;;;;;;;;;5047567;28;20029;-48
2021/12/17 10:17:51;;;;;;;5.68;2.95;;;;;;;;;;5046561;28;20473;-50
2021/12/17 10:20:18;;;;;;;4.30;3.10;;;;;;;;;;5043684;28;20445;-52
2021/12/17 10:22:45;;;;;;;5.82;3.65;;;;;;;;;;5048255;28;20041;-48
2021/12/17 10:25:11;;;;;;;9.13;3.72;;;;;;;;;;5050048;28;20029;-50
2021/12/17 10:27:39;;;;;;;11.25;3.97;;;;;;;;;;5049169;28;20135;-49
2021/12/17 10:30:19;;;;;;;9.95;3.72;;;;;;;;;;5049647;28;20071;-51
2021/12/17 10:32:48;;;;;;;9.15;4.30;;;;;;;;;;5044120;28;20432;-49
2021/12/17 10:35:19;;;;;;;7.45;3.97;;;;;;;;;;5052382;28;20079;-47
2021/12/17 10:37:55;;;;;;;8.52;3.95;;;;;;;;;;5044733;28;20025;-52
2021/12/17 10:40:24;;;;;;;5.57;3.95;;;;;;;;;;5051606;28;20749;-48
2021/12/17 10:43:00;;;;;;;8.60;4.35;;;;;;;;;;5047720;28;20037;-48
2021/12/17 10:45:28;;;;;;;4.53;3.53;;;;;;;;;;5046491;28;20067;-47
2021/12/17 10:48:24;;;;;;;5.07;3.67;;;;;;;;;;5049690;28;20055;-50
2021/12/17 10:50:59;;;;;;;6.40;3.60;;;;;;;;;;5050883;28;20111;-50
2021/12/17 10:53:24;;;;;;;5.30;2.80;;;;;;;;;;5045373;28;20041;-51
2021/12/17 10:55:51;;;;;;;5.90;3.20;;;;;;;;;;5049461;28;20455;-49
2021/12/17 10:58:17;;;;;;;8.30;3.20;;;;;;;;;;5043466;28;20465;-52
2021/12/17 11:00:55;;;;;;;4.80;2.85;;;;;;;;;;5049899;28;20041;-52
2021/12/17 11:03:20;;;;;;;4.97;3.22;;;;;;;;;;5042603;28;20043;-50
2021/12/17 11:05:46;;;;;;;4.63;3.22;;;;;;;;;;5045981;28;20762;-47
2021/12/17 11:08:30;;;;;;;5.00;3.20;;;;;;;;;;5044699;28;20039;-52
2021/12/17 11:11:12;;;;;;;6.05;3.20;;;;;;;;;;5044863;28;20033;-49
2021/12/17 11:13:57;;;;;;;5.28;3.60;;;;;;;;;;5047896;28;20025;-49
2021/12/17 11:16:24;;;;;;;6.38;3.25;;;;;;;;;;5047958;28;20033;-50
2021/12/17 11:18:49;;;;;;;4.43;3.40;;;;;;;;;;5051539;28;20032;-49
2021/12/17 11:21:15;;;;;;;4.63;3.42;;;;;;;;;;5046701;28;20032;-48
2021/12/17 11:23:42;;;;;;;5.18;3.13;;;;;;;;;;5047171;28;20024;-51
2021/12/17 11:26:08;;;;;;;7.72;3.35;;;;;;;;;;5043276;28;20037;-52
2021/12/17 11:28:34;;;;;;;4.72;3.20;;;;;;;;;;5047030;28;20063;-53
2021/12/17 11:30:59;;;;;;;3.90;2.83;;;;;;;;;;5048179;28;20041;-50
2021/12/17 11:33:25;;;;;;;13.38;3.28;;;;;;;;;;5047715;28;20126;-52
2021/12/17 11:35:51;;;;;;;5.55;2.90;;;;;;;;;;5045213;28;20035;-52
2021/12/17 11:38:50;;;;;;;7.22;2.97;;;;;;;;;;5046258;28;20040;-48
2021/12/17 11:41:24;;;;;;;6.43;3.22;;;;;;;;;;5046057;28;20214;-50
2021/12/17 11:44:01;;;;;;;3.55;2.63;;;;;;;;;;5046650;28;20028;-50
2021/12/17 11:46:32;;;;;;;3.55;2.78;;;;;;;;;;5047179;28;20052;-51
2021/12/17 11:49:00;;;;;;;4.68;3.20;;;;;;;;;;5047081;28;20116;-49
2021/12/17 11:51:31;;;;;;;6.55;2.90;;;;;;;;;;5026554;28;20048;-53
2021/12/17 11:53:59;;;;;;;3.85;2.80;;;;;;;;;;5026199;28;20029;-51
2021/12/17 11:56:35;;;;;;;4.30;2.83;;;;;;;;;;5042885;28;20405;-51
2021/12/17 11:59:02;;;;;;;2.83;2.50;;;;;;;;;;5043445;28;20068;-52
2021/12/17 12:01:46;;;;;;;2.80;2.03;;;;;;;;;;5043967;28;20044;-52
2021/12/17 12:04:48;;;;;;;2.60;2.20;;;;;;;;;;5046928;28;20044;-51
2021/12/17 12:07:25;;;;;;;3.72;2.63;;;;;;;;;;5004731;28;20052;-48
2021/12/17 12:10:09;;;;;;;4.07;2.78;;;;;;;;;;5043490;28;20970;-48
2021/12/17 12:12:34;;;;;;;;;;;;;;;;;;5047888;28;20032;-46
2021/12/17 12:15:24;;;;;;;3.90;2.47;;;;;;;;;;5045684;28;19917;-53
2021/12/17 12:18:17;;;;;;;3.38;2.53;;;;;;;;;;5047495;28;20450;-48
2021/12/17 12:23:38;;;;;;;3.75;2.30;;;;;;;;;;5048872;28;20347;-54
2021/12/17 12:26:03;;;;;;;3.78;2.28;;;;;;;;;;5046410;28;20506;-50
2021/12/17 12:28:58;;;;;;;5.43;2.50;;;;;;;;;;5045185;28;20037;-51
2021/12/17 12:31:27;;;;;;;3.22;2.00;;;;;;;;;;5014148;28;20377;-47
2021/12/17 12:34:04;;;;;;;3.92;2.28;;;;;;;;;;5043755;28;20036;-46
2021/12/17 12:36:58;;;;;;;3.42;1.98;;;;;;;;;;5044513;28;20024;-48
2021/12/17 12:39:38;;;;;;;2.70;2.13;;;;;;;;;;5045295;28;20033;-49
2021/12/17 12:42:11;;;;;;;3.00;2.05;;;;;;;;;;5043068;28;20131;-50
2021/12/17 12:44:39;;;;;;;;;;;;;;;;;;5044672;28;20432;-45
2021/12/17 12:47:06;;;;;;;3.50;2.10;;;;;;;;;;5046367;28;19919;-46
2021/12/17 12:49:51;;;;;;;3.72;2.05;;;;;;;;;;5047252;28;20484;-49
2021/12/17 12:52:31;;;;;;;4.75;1.95;;;;;;;;;;5024781;28;20115;-47
2021/12/17 12:54:59;;;;;;;3.17;2.10;;;;;;;;;;5048818;28;20025;-49
2021/12/17 12:57:27;;;;;;;2.42;2.00;;;;;;;;;;5045110;28;20025;-48
2021/12/17 12:59:58;;;;;;;8.25;3.55;;;;;;;;;;5043460;28;20572;-52
2021/12/17 13:02:25;;;;;;;6.57;3.15;;;;;;;;;;5044407;28;20029;-50
2021/12/17 13:04:57;;;;;;;3.58;2.65;;;;;;;;;;5041699;28;20399;-50
2021/12/17 13:07:47;;;;;;;5.45;2.55;;;;;;;;;;5042172;28;20052;-49
2021/12/17 13:10:20;;;;;;;2.95;2.08;;;;;;;;;;5043996;28;20024;-52
2021/12/17 13:12:53;;;;;;;3.20;2.45;;;;;;;;;;5043909;28;20104;-48
2021/12/17 13:23:19;;;;;;;3.17;2.05;;;;;;;;;;5046871;28;20052;-51
2021/12/17 13:25:44;;;;;;;5.18;2.50;;;;;;;;;;5045952;28;20033;-48
2021/12/17 13:28:10;;;;;;;25.35;3.65;;;;;;;;;;5044079;28;20497;-55
2021/12/17 13:30:35;;;;;;;7.85;2.30;;;;;;;;;;5041270;28;20029;-51
2021/12/17 13:33:01;;;;;;;68.97;4.25;;;;;;;;;;5044991;28;20025;-52
2021/12/17 13:35:27;;;;;;;6.38;2.70;;;;;;;;;;5044594;28;20109;-55
2021/12/17 13:38:01;;;;;;;3.28;2.55;;;;;;;;;;5045375;28;20162;-47
2021/12/17 13:40:28;;;;;;;2.65;2.20;;;;;;;;;;5047220;28;20033;-49
2021/12/17 13:42:55;;;;;;;3.92;2.30;;;;;;;;;;5045135;28;20148;-48
2021/12/17 13:45:25;;;;;;;3.67;2.25;;;;;;;;;;5041595;28;20024;-51
2021/12/17 13:47:54;;;;;;;5.88;2.40;;;;;;;;;;5049044;28;20037;-51
2021/12/17 13:50:33;;;;;;;4.13;2.40;;;;;;;;;;5048137;28;20036;-50
2021/12/17 13:53:05;;;;;;;4.72;2.33;;;;;;;;;;5046603;28;20063;-49
2021/12/17 13:55:33;;;;;;;4.30;2.55;;;;;;;;;;5031054;28;20056;-51
2021/12/17 13:58:00;;;;;;;3.75;2.42;;;;;;;;;;5030654;28;20511;-50
2021/12/17 14:00:31;;;;;;;8.63;2.13;;;;;;;;;;5047658;28;20040;-51
2021/12/17 14:02:58;;;;;;;2.55;1.73;;;;;;;;;;5046942;28;20041;-51
2021/12/17 14:05:40;;;;;;;3.80;2.00;;;;;;;;;;5045536;28;20060;-52
2021/12/17 14:08:09;;;;;;;4.60;2.17;;;;;;;;;;5046944;28;20063;-50
2021/12/17 14:10:36;;;;;;;4.78;2.05;;;;;;;;;;5043340;28;20119;-51
2021/12/17 14:13:03;;;;;;;3.38;2.00;;;;;;;;;;5046649;28;20086;-49
2021/12/17 14:15:32;;;;;;;2.35;1.83;;;;;;;;;;5050726;28;20495;-51
2021/12/17 14:18:08;;;;;;;3.45;1.70;;;;;;;;;;5047189;28;20067;-48
2021/12/17 14:20:42;;;;;;;3.13;1.42;;;;;;;;;;5042180;28;20104;-52
2021/12/17 14:23:12;;;;;;;2.80;2.50;;;;;;;;;;5047501;28;20033;-50
2021/12/17 14:25:40;;;;;;;3.13;2.00;;;;;;;;;;5046315;28;20155;-47
2021/12/17 14:28:19;;;;;;;3.28;2.30;;;;;;;;;;5046012;28;20618;-53
2021/12/17 14:31:15;;;;;;;3.05;1.70;;;;;;;;;;5045638;28;20427;-49
2021/12/17 14:33:51;;;;;;;2.00;1.63;;;;;;;;;;5046680;28;20029;-50
2021/12/17 14:36:38;;;;;;;1.60;1.27;;;;;;;;;;5045713;28;20112;-50
2021/12/17 14:39:18;;;;;;;2.33;1.50;;;;;;;;;;5045618;28;20035;-52
2021/12/17 14:42:01;;;;;;;2.95;1.38;;;;;;;;;;5044773;28;20029;-51
2021/12/17 14:47:07;;;;;;;2.75;1.58;;;;;;;;;;5048558;28;20034;-52
2021/12/17 15:00:49;;;;;;;6.20;1.45;;;;;;;;;;5026838;28;20025;-48
2021/12/17 15:03:28;;;;;;;2.20;1.35;;;;;;;;;;5030284;28;20060;-47
2021/12/17 15:05:56;;;;;;;2.53;1.30;;;;;;;;;;5029204;28;20037;-50
2021/12/17 15:08:22;;;;;;;2.75;1.40;;;;;;;;;;5031839;28;20112;-51
2021/12/17 15:10:47;;;;;;;4.00;1.50;;;;;;;;;;5027639;28;20573;-48
2021/12/17 15:13:13;;;;;;;2.83;1.48;;;;;;;;;;5030239;28;20021;-51
2021/12/17 15:15:40;;;;;;;2.30;1.50;;;;;;;;;;5010759;28;20052;-52
2021/12/17 15:18:13;;;;;;;1.55;1.10;;;;;;;;;;5029059;28;20091;-52
2021/12/17 15:20:40;;;;;;;1.55;1.10;;;;;;;;;;5027215;28;20041;-53
2021/12/17 15:23:06;;;;;;;2.55;1.80;;;;;;;;;;5030073;28;20112;-51
2021/12/17 15:25:33;;;;;;;2.20;1.42;;;;;;;;;;5009651;28;20113;-52
2021/12/17 15:27:59;;;;;;;2.67;1.70;;;;;;;;;;5028992;28;20042;-47
2021/12/17 15:30:34;;;;;;;1.83;1.48;;;;;;;;;;5031575;28;20044;-46
2021/12/17 15:33:01;;;;;;;1.67;1.40;;;;;;;;;;5024609;28;20044;-48
2021/12/17 15:35:27;;;;;;;3.42;1.25;;;;;;;;;;5028611;28;20153;-50
2021/12/17 15:37:55;;;;;;;1.50;1.10;;;;;;;;;;5028666;28;20049;-52
2021/12/17 15:40:22;;;;;;;1.13;0.85;;;;;;;;;;5031561;28;20018;-54
2021/12/17 15:42:48;;;;;;;2.40;1.20;;;;;;;;;;5024825;28;20029;-54
2021/12/17 15:45:15;;;;;;;2.30;1.30;;;;;;;;;;5030632;28;20036;-53
2021/12/17 15:47:41;;;;;;;3.80;1.55;;;;;;;;;;5031460;28;20120;-47
2021/12/17 15:50:09;;;;;;;3.60;1.40;;;;;;;;;;5033210;28;20029;-49
2021/12/17 15:52:36;;;;;;;1.45;1.30;;;;;;;;;;5045878;28;20036;-50
2021/12/17 15:55:03;;;;;;;3.45;1.52;;;;;;;;;;5044256;28;20055;-54
2021/12/17 15:57:28;;;;;;;3.92;1.17;;;;;;;;;;5042728;28;21234;-49
2021/12/17 15:59:54;;;;;;;2.05;1.27;;;;;;;;;;5045934;28;20037;-53
2021/12/17 16:02:19;;;;;;;1.90;1.38;;;;;;;;;;5044670;28;20469;-47
2021/12/17 16:04:46;;;;;;;4.07;2.90;;;;;;;;;;5045536;28;20072;-50
2021/12/17 16:07:13;;;;;;;9.25;4.45;;;;;;;;;;5046861;28;20079;-51
2021/12/17 16:16:49;;;;;;;5.95;2.95;;;;;;;;;;5044288;28;20115;-50
2021/12/17 16:23:12;;;;;;;4.63;1.70;;;;;;;;;;5045725;28;20111;-53
2021/12/17 16:25:37;;;;;;;2.60;1.60;;;;;;;;;;5043989;28;20412;-52
2021/12/17 16:28:03;;;;;;;3.30;1.67;;;;;;;;;;5043406;28;20039;-46
2021/12/17 16:30:30;;;;;;;3.35;1.45;;;;;;;;;;5028085;28;20163;-53
2021/12/17 16:32:56;;;;;;;2.70;1.52;;;;;;;;;;5043005;28;20029;-52
2021/12/17 16:35:21;;;;;;;1.60;1.33;;;;;;;;;;5045468;28;20529;-50
2021/12/17 16:37:46;;;;;;;1.63;1.13;;;;;;;;;;5047423;28;20051;-51
2021/12/17 16:40:13;;;;;;;1.40;1.20;;;;;;;;;;5044987;28;20052;-47
2021/12/17 16:42:38;;;;;;;1.30;1.00;;;;;;;;;;5047347;28;20029;-52
2021/12/17 16:45:21;;;;;;;1.55;1.30;;;;;;;;;;5045003;28;20535;-51
2021/12/17 16:47:47;;;;;;;2.03;1.40;;;;;;;;;;5046000;28;20083;-49
2021/12/17 16:50:13;;;;;;;3.20;1.27;;;;;;;;;;5042934;28;20036;-53
2021/12/17 16:52:39;;;;;;;1.30;1.10;;;;;;;;;;5044819;28;20880;-51
2021/12/17 16:55:07;;;;;;;2.75;1.40;;;;;;;;;;5027895;28;20033;-51
2021/12/17 16:57:32;;;;;;;4.85;1.23;;;;;;;;;;5045601;28;20033;-49
2021/12/17 16:59:59;;;;;;;3.13;1.30;;;;;;;;;;5045254;28;20040;-53
2021/12/17 17:02:24;;;;;;;2.47;1.30;;;;;;;;;;5045109;28;20036;-52
2021/12/17 17:04:50;;;;;;;5.82;2.17;;;;;;;;;;5044267;28;20391;-55
2021/12/17 17:07:15;;;;;;;3.60;2.47;;;;;;;;;;5042560;28;20063;-53
2021/12/17 17:09:41;;;;;;;3.45;2.10;;;;;;;;;;5047082;28;20029;-50
2021/12/17 17:12:10;;;;;;;2.10;1.70;;;;;;;;;;5044128;28;20033;-47
2021/12/17 17:14:35;;;;;;;4.18;2.22;;;;;;;;;;5047816;28;20021;-50
2021/12/17 17:17:05;;;;;;;3.33;2.20;;;;;;;;;;5042972;28;20029;-51
2021/12/17 17:19:31;;;;;;;4.70;2.90;;;;;;;;;;5045641;28;20032;-49
2021/12/17 17:21:58;;;;;;;4.95;2.80;;;;;;;;;;5047054;28;20040;-51
2021/12/17 17:24:24;;;;;;;3.42;2.58;;;;;;;;;;5049115;28;20051;-52
2021/12/17 17:26:50;;;;;;;5.10;2.60;;;;;;;;;;5045524;28;20484;-47
2021/12/17 17:29:16;;;;;;;4.93;2.50;;;;;;;;;;5032317;28;20029;-51
2021/12/17 17:31:42;;;;;;;3.90;2.30;;;;;;;;;;5047388;28;20021;-52
2021/12/17 17:34:09;;;;;;;5.90;2.72;;;;;;;;;;5051594;28;20028;-51
2021/12/17 17:36:35;;;;;;;5.18;2.70;;;;;;;;;;5049614;28;20469;-54
2021/12/17 17:39:03;;;;;;;6.10;2.38;;;;;;;;;;5048898;28;20029;-49
2021/12/17 17:41:29;;;;;;;5.15;3.10;;;;;;;;;;5046957;28;20521;-50
2021/12/17 17:43:56;;;;;;;4.63;3.03;;;;;;;;;;5048903;28;20057;-51
2021/12/17 17:46:22;;;;;;;6.63;3.55;;;;;;;;;;5048215;28;20021;-53
2021/12/17 17:48:48;;;;;;;5.13;3.65;;;;;;;;;;5050572;28;20048;-52
2021/12/17 17:51:13;;;;;;;7.80;3.72;;;;;;;;;;5047650;28;20074;-51
2021/12/17 17:53:40;;;;;;;8.98;3.97;;;;;;;;;;5032996;28;20036;-50
2021/12/17 17:56:06;;;;;;;9.35;4.00;;;;;;;;;;5047725;28;20373;-52
2021/12/17 17:58:32;;;;;;;7.25;3.58;;;;;;;;;;5028882;28;20064;-52
2021/12/17 18:00:57;;;;;;;10.57;4.88;;;;;;;;;;5048249;28;20627;-50
2021/12/17 18:03:23;;;;;;;12.75;4.53;;;;;;;;;;5050706;28;20039;-49
2021/12/17 18:05:49;;;;;;;12.88;4.93;;;;;;;;;;5044035;28;20036;-52
2021/12/17 18:08:14;;;;;;;9.48;4.65;;;;;;;;;;5048423;28;20065;-54
2021/12/17 18:10:42;;;;;;;11.48;4.88;;;;;;;;;;5049396;28;20559;-55